sensor_id;sensor_type;location;lat;lon;timestamp;temperature;humidity
7155;DHT22;3619;53.784;10.440;2024-03-08T00:00:37;0.50;99.90
7155;DHT22;3619;53.784;10.440;2024-03-08T00:03:06;0.50;99.90
7155;DHT22;3619;53.784;10.440;2024-03-08T00:05:33;0.40;99.90
7155;DHT22;3619;53.784;10.440;2024-03-08T00:08:00;0.40;99.90
7155;DHT22;3619;53.784;10.440;2024-03-08T00:10:28;0.40;99.90
7155;DHT22;3619;53.784;10.440;2024-03-08T00:12:55;0.40;99.90
7155;DHT22;3619;53.784;10.440;2024-03-08T00:15:23;0.40;99.90
7155;DHT22;3619;53.784;10.440;2024-03-08T00:17:51;0.40;99.90
7155;DHT22;3619;53.784;10.440;2024-03-08T00:20:19;0.40;99.90
7155;DHT22;3619;53.784;10.440;2024-03-08T00:22:46;0.40;99.90
7155;DHT22;3619;53.784;10.440;2024-03-08T00:25:13;0.30;99.90
7155;DHT22;3619;53.784;10.440;2024-03-08T00:27:43;0.30;99.90
7155;DHT22;3619;53.784;10.440;2024-03-08T00:30:10;0.30;99.90
7155;DHT22;3619;53.784;10.440;2024-03-08T00:32:39;0.30;99.90
7155;DHT22;3619;53.784;10.440;2024-03-08T00:35:07;0.30;99.90
7155;DHT22;3619;53.784;10.440;2024-03-08T00:37:34;0.20;99.90
7155;DHT22;3619;53.784;10.440;2024-03-08T00:40:01;0.30;99.90
7155;DHT22;3619;53.784;10.440;2024-03-08T00:42:30;0.20;99.90
7155;DHT22;3619;53.784;10.440;2024-03-08T00:44:58;0.20;99.90
7155;DHT22;3619;53.784;10.440;2024-03-08T00:47:29;0.20;99.90
7155;DHT22;3619;53.784;10.440;2024-03-08T00:49:56;0.20;99.90
7155;DHT22;3619;53.784;10.440;2024-03-08T00:52:23;0.10;99.90
7155;DHT22;3619;53.784;10.440;2024-03-08T00:54:50;0.10;99.90
7155;DHT22;3619;53.784;10.440;2024-03-08T00:57:18;0.20;99.90
7155;DHT22;3619;53.784;10.440;2024-03-08T00:59:45;0.20;99.90
7155;DHT22;3619;53.784;10.440;2024-03-08T01:02:16;0.10;99.90
7155;DHT22;3619;53.784;10.440;2024-03-08T01:04:44;0.20;99.90
7155;DHT22;3619;53.784;10.440;2024-03-08T01:07:12;0.20;99.90
7155;DHT22;3619;53.784;10.440;2024-03-08T01:09:39;0.20;99.90
7155;DHT22;3619;53.784;10.440;2024-03-08T01:12:07;0.20;99.90
7155;DHT22;3619;53.784;10.440;2024-03-08T01:14:34;0.10;99.90
7155;DHT22;3619;53.784;10.440;2024-03-08T01:17:01;0.10;99.90
7155;DHT22;3619;53.784;10.440;2024-03-08T01:19:30;0.00;99.90
7155;DHT22;3619;53.784;10.440;2024-03-08T01:21:59;0.10;99.90
7155;DHT22;3619;53.784;10.440;2024-03-08T01:24:28;0.10;99.90
7155;DHT22;3619;53.784;10.440;2024-03-08T01:26:55;0.10;99.90
7155;DHT22;3619;53.784;10.440;2024-03-08T01:29:22;0.10;99.90
7155;DHT22;3619;53.784;10.440;2024-03-08T01:31:49;0.10;99.90
7155;DHT22;3619;53.784;10.440;2024-03-08T01:34:18;0.20;99.90
7155;DHT22;3619;53.784;10.440;2024-03-08T01:36:46;0.10;99.90
7155;DHT22;3619;53.784;10.440;2024-03-08T01:39:13;0.10;99.90
7155;DHT22;3619;53.784;10.440;2024-03-08T01:41:40;0.10;99.90
7155;DHT22;3619;53.784;10.440;2024-03-08T01:44:07;0.00;99.90
7155;DHT22;3619;53.784;10.440;2024-03-08T01:46:35;0.00;99.90
7155;DHT22;3619;53.784;10.440;2024-03-08T01:49:02;-0.10;99.90
7155;DHT22;3619;53.784;10.440;2024-03-08T01:51:29;0.00;99.90
7155;DHT22;3619;53.784;10.440;2024-03-08T01:54:01;0.00;99.90
7155;DHT22;3619;53.784;10.440;2024-03-08T01:56:29;-0.10;99.90
7155;DHT22;3619;53.784;10.440;2024-03-08T01:58:57;-0.10;99.90
7155;DHT22;3619;53.784;10.440;2024-03-08T02:01:25;-0.10;99.90
7155;DHT22;3619;53.784;10.440;2024-03-08T02:03:52;-0.10;99.90
7155;DHT22;3619;53.784;10.440;2024-03-08T02:06:19;-0.10;99.90
7155;DHT22;3619;53.784;10.440;2024-03-08T02:08:46;-0.10;99.90
7155;DHT22;3619;53.784;10.440;2024-03-08T02:11:14;-0.10;99.90
7155;DHT22;3619;53.784;10.440;2024-03-08T02:13:41;-0.10;99.90
7155;DHT22;3619;53.784;10.440;2024-03-08T02:16:08;-0.10;99.90
7155;DHT22;3619;53.784;10.440;2024-03-08T02:18:35;-0.20;99.90
7155;DHT22;3619;53.784;10.440;2024-03-08T02:21:07;-0.10;99.90
7155;DHT22;3619;53.784;10.440;2024-03-08T02:23:34;-0.10;99.90
7155;DHT22;3619;53.784;10.440;2024-03-08T02:26:01;-0.10;99.90
7155;DHT22;3619;53.784;10.440;2024-03-08T02:28:30;-0.10;99.90
7155;DHT22;3619;53.784;10.440;2024-03-08T02:30:57;-0.10;99.90
7155;DHT22;3619;53.784;10.440;2024-03-08T02:33:26;-0.10;99.90
7155;DHT22;3619;53.784;10.440;2024-03-08T02:35:52;-0.10;99.90
7155;DHT22;3619;53.784;10.440;2024-03-08T02:38:22;-0.10;99.90
7155;DHT22;3619;53.784;10.440;2024-03-08T02:40:52;-0.20;99.90
7155;DHT22;3619;53.784;10.440;2024-03-08T02:43:20;-0.20;99.90
7155;DHT22;3619;53.784;10.440;2024-03-08T02:45:48;-0.20;99.90
7155;DHT22;3619;53.784;10.440;2024-03-08T02:48:18;-0.10;99.90
7155;DHT22;3619;53.784;10.440;2024-03-08T02:50:54;-0.20;99.90
7155;DHT22;3619;53.784;10.440;2024-03-08T02:53:22;-0.10;99.90
7155;DHT22;3619;53.784;10.440;2024-03-08T02:55:50;-0.20;99.90
7155;DHT22;3619;53.784;10.440;2024-03-08T02:58:17;-0.20;99.90
7155;DHT22;3619;53.784;10.440;2024-03-08T03:00:44;-0.30;99.90
7155;DHT22;3619;53.784;10.440;2024-03-08T03:03:10;-0.30;99.90
7155;DHT22;3619;53.784;10.440;2024-03-08T03:05:37;-0.30;99.90
7155;DHT22;3619;53.784;10.440;2024-03-08T03:08:06;-0.30;99.90
7155;DHT22;3619;53.784;10.440;2024-03-08T03:10:35;-0.30;99.90
7155;DHT22;3619;53.784;10.440;2024-03-08T03:13:02;-0.40;99.90
7155;DHT22;3619;53.784;10.440;2024-03-08T03:15:30;-0.40;99.90
7155;DHT22;3619;53.784;10.440;2024-03-08T03:17:57;-0.40;99.90
7155;DHT22;3619;53.784;10.440;2024-03-08T03:20:24;-0.30;99.90
7155;DHT22;3619;53.784;10.440;2024-03-08T03:22:52;-0.40;99.90
7155;DHT22;3619;53.784;10.440;2024-03-08T03:25:19;-0.40;99.90
7155;DHT22;3619;53.784;10.440;2024-03-08T03:27:52;-0.40;99.90
7155;DHT22;3619;53.784;10.440;2024-03-08T03:30:22;-0.50;99.90
7155;DHT22;3619;53.784;10.440;2024-03-08T03:32:49;-0.40;99.90
7155;DHT22;3619;53.784;10.440;2024-03-08T03:35:17;-0.50;99.90
7155;DHT22;3619;53.784;10.440;2024-03-08T03:37:44;-0.40;99.90
7155;DHT22;3619;53.784;10.440;2024-03-08T03:40:27;-0.30;99.90
7155;DHT22;3619;53.784;10.440;2024-03-08T03:42:55;-0.30;99.90
7155;DHT22;3619;53.784;10.440;2024-03-08T03:45:22;-0.20;99.90
7155;DHT22;3619;53.784;10.440;2024-03-08T03:47:49;-0.20;99.90
7155;DHT22;3619;53.784;10.440;2024-03-08T03:50:20;-0.20;99.90
7155;DHT22;3619;53.784;10.440;2024-03-08T03:52:48;-0.20;99.90
7155;DHT22;3619;53.784;10.440;2024-03-08T03:55:15;-0.20;99.90
7155;DHT22;3619;53.784;10.440;2024-03-08T03:57:42;-0.10;99.90
7155;DHT22;3619;53.784;10.440;2024-03-08T04:00:13;-0.20;99.90
7155;DHT22;3619;53.784;10.440;2024-03-08T04:02:40;-0.10;99.90
7155;DHT22;3619;53.784;10.440;2024-03-08T04:05:08;-0.10;99.90
7155;DHT22;3619;53.784;10.440;2024-03-08T04:07:35;-0.10;99.90
7155;DHT22;3619;53.784;10.440;2024-03-08T04:10:02;-0.10;99.90
7155;DHT22;3619;53.784;10.440;2024-03-08T04:12:31;-0.20;99.90
7155;DHT22;3619;53.784;10.440;2024-03-08T04:14:58;-0.10;99.90
7155;DHT22;3619;53.784;10.440;2024-03-08T04:17:27;-0.10;99.90
7155;DHT22;3619;53.784;10.440;2024-03-08T04:19:54;-0.20;99.90
7155;DHT22;3619;53.784;10.440;2024-03-08T04:22:21;-0.10;99.90
7155;DHT22;3619;53.784;10.440;2024-03-08T04:24:48;-0.10;99.90
7155;DHT22;3619;53.784;10.440;2024-03-08T04:27:15;-0.20;99.90
7155;DHT22;3619;53.784;10.440;2024-03-08T04:29:43;-0.10;99.90
7155;DHT22;3619;53.784;10.440;2024-03-08T04:32:10;-0.10;99.90
7155;DHT22;3619;53.784;10.440;2024-03-08T04:34:40;-0.10;99.90
7155;DHT22;3619;53.784;10.440;2024-03-08T04:37:07;-0.10;99.90
7155;DHT22;3619;53.784;10.440;2024-03-08T04:39:36;-0.10;99.90
7155;DHT22;3619;53.784;10.440;2024-03-08T04:42:04;-0.20;99.90
7155;DHT22;3619;53.784;10.440;2024-03-08T04:44:32;-0.20;99.90
7155;DHT22;3619;53.784;10.440;2024-03-08T04:47:00;-0.10;99.90
7155;DHT22;3619;53.784;10.440;2024-03-08T04:49:27;-0.20;99.90
7155;DHT22;3619;53.784;10.440;2024-03-08T04:51:55;-0.20;99.90
7155;DHT22;3619;53.784;10.440;2024-03-08T04:54:22;-0.20;99.90
7155;DHT22;3619;53.784;10.440;2024-03-08T04:56:49;-0.10;99.90
7155;DHT22;3619;53.784;10.440;2024-03-08T04:59:16;-0.30;99.90
7155;DHT22;3619;53.784;10.440;2024-03-08T05:01:43;-0.30;99.90
7155;DHT22;3619;53.784;10.440;2024-03-08T05:04:10;-0.30;99.90
7155;DHT22;3619;53.784;10.440;2024-03-08T05:06:37;-0.40;99.90
7155;DHT22;3619;53.784;10.440;2024-03-08T05:09:05;-0.30;99.90
7155;DHT22;3619;53.784;10.440;2024-03-08T05:11:39;-0.40;99.90
7155;DHT22;3619;53.784;10.440;2024-03-08T05:14:05;-0.40;99.90
7155;DHT22;3619;53.784;10.440;2024-03-08T05:16:32;-0.40;99.90
7155;DHT22;3619;53.784;10.440;2024-03-08T05:18:59;-0.40;99.90
7155;DHT22;3619;53.784;10.440;2024-03-08T05:21:26;-0.50;99.90
7155;DHT22;3619;53.784;10.440;2024-03-08T05:23:54;-0.50;99.90
7155;DHT22;3619;53.784;10.440;2024-03-08T05:26:22;-0.60;99.90
7155;DHT22;3619;53.784;10.440;2024-03-08T05:28:49;-0.60;99.90
7155;DHT22;3619;53.784;10.440;2024-03-08T05:31:19;-0.60;99.90
7155;DHT22;3619;53.784;10.440;2024-03-08T05:33:47;-0.60;99.90
7155;DHT22;3619;53.784;10.440;2024-03-08T05:36:14;-0.60;99.90
7155;DHT22;3619;53.784;10.440;2024-03-08T05:38:42;-0.70;99.90
7155;DHT22;3619;53.784;10.440;2024-03-08T05:41:09;-0.70;99.90
7155;DHT22;3619;53.784;10.440;2024-03-08T05:43:40;-0.70;99.90
7155;DHT22;3619;53.784;10.440;2024-03-08T05:46:07;-0.70;99.90
7155;DHT22;3619;53.784;10.440;2024-03-08T05:48:34;-0.60;99.90
7155;DHT22;3619;53.784;10.440;2024-03-08T05:51:01;-0.70;99.90
7155;DHT22;3619;53.784;10.440;2024-03-08T05:53:29;-0.60;99.90
7155;DHT22;3619;53.784;10.440;2024-03-08T05:55:57;-0.90;99.90
7155;DHT22;3619;53.784;10.440;2024-03-08T05:58:26;-0.90;99.90
7155;DHT22;3619;53.784;10.440;2024-03-08T06:00:57;-0.90;99.90
7155;DHT22;3619;53.784;10.440;2024-03-08T06:03:24;-0.90;99.90
7155;DHT22;3619;53.784;10.440;2024-03-08T06:05:51;-0.90;99.90
7155;DHT22;3619;53.784;10.440;2024-03-08T06:08:18;-1.00;99.90
7155;DHT22;3619;53.784;10.440;2024-03-08T06:10:45;-1.00;99.90
7155;DHT22;3619;53.784;10.440;2024-03-08T06:13:15;-1.00;99.90
7155;DHT22;3619;53.784;10.440;2024-03-08T06:15:41;-1.10;99.90
7155;DHT22;3619;53.784;10.440;2024-03-08T06:18:10;-1.10;99.90
7155;DHT22;3619;53.784;10.440;2024-03-08T06:20:37;-1.10;99.90
7155;DHT22;3619;53.784;10.440;2024-03-08T06:23:04;-1.10;99.90
7155;DHT22;3619;53.784;10.440;2024-03-08T06:25:31;-1.00;99.90
7155;DHT22;3619;53.784;10.440;2024-03-08T06:27:59;-0.90;99.90
7155;DHT22;3619;53.784;10.440;2024-03-08T06:30:25;-0.90;99.90
7155;DHT22;3619;53.784;10.440;2024-03-08T06:32:53;-1.10;99.90
7155;DHT22;3619;53.784;10.440;2024-03-08T06:35:22;-1.00;99.90
7155;DHT22;3619;53.784;10.440;2024-03-08T06:37:48;-1.00;99.90
7155;DHT22;3619;53.784;10.440;2024-03-08T06:40:16;-1.10;99.90
7155;DHT22;3619;53.784;10.440;2024-03-08T06:42:42;-1.10;99.90
7155;DHT22;3619;53.784;10.440;2024-03-08T06:45:09;-1.10;99.90
7155;DHT22;3619;53.784;10.440;2024-03-08T06:47:38;-1.10;99.90
7155;DHT22;3619;53.784;10.440;2024-03-08T06:50:07;-1.00;99.90
7155;DHT22;3619;53.784;10.440;2024-03-08T06:52:36;-1.00;99.90
7155;DHT22;3619;53.784;10.440;2024-03-08T06:55:04;-1.00;99.90
7155;DHT22;3619;53.784;10.440;2024-03-08T06:57:32;-1.00;99.90
7155;DHT22;3619;53.784;10.440;2024-03-08T06:59:59;-1.00;99.90
7155;DHT22;3619;53.784;10.440;2024-03-08T07:02:27;-1.00;99.90
7155;DHT22;3619;53.784;10.440;2024-03-08T07:04:53;-0.90;99.90
7155;DHT22;3619;53.784;10.440;2024-03-08T07:07:21;-0.90;99.90
7155;DHT22;3619;53.784;10.440;2024-03-08T07:09:50;-0.90;99.90
7155;DHT22;3619;53.784;10.440;2024-03-08T07:12:18;-0.80;99.90
7155;DHT22;3619;53.784;10.440;2024-03-08T07:14:46;-0.80;99.90
7155;DHT22;3619;53.784;10.440;2024-03-08T07:17:13;-0.80;99.90
7155;DHT22;3619;53.784;10.440;2024-03-08T07:19:40;-0.80;99.90
7155;DHT22;3619;53.784;10.440;2024-03-08T07:22:06;-0.70;99.90
7155;DHT22;3619;53.784;10.440;2024-03-08T07:24:35;-0.70;99.90
7155;DHT22;3619;53.784;10.440;2024-03-08T07:27:22;-0.60;99.90
7155;DHT22;3619;53.784;10.440;2024-03-08T07:29:49;-0.60;99.90
7155;DHT22;3619;53.784;10.440;2024-03-08T07:32:16;-0.60;99.90
7155;DHT22;3619;53.784;10.440;2024-03-08T07:34:47;-0.60;99.90
7155;DHT22;3619;53.784;10.440;2024-03-08T07:37:16;-0.50;99.90
7155;DHT22;3619;53.784;10.440;2024-03-08T07:39:43;-0.50;99.90
7155;DHT22;3619;53.784;10.440;2024-03-08T07:42:10;-0.30;99.90
7155;DHT22;3619;53.784;10.440;2024-03-08T07:44:39;-0.30;99.90
7155;DHT22;3619;53.784;10.440;2024-03-08T07:47:07;-0.30;99.90
7155;DHT22;3619;53.784;10.440;2024-03-08T07:49:35;-0.30;99.90
7155;DHT22;3619;53.784;10.440;2024-03-08T07:52:03;-0.30;99.90
7155;DHT22;3619;53.784;10.440;2024-03-08T07:54:36;-0.20;99.90
7155;DHT22;3619;53.784;10.440;2024-03-08T07:57:07;-0.20;99.90
7155;DHT22;3619;53.784;10.440;2024-03-08T07:59:34;-0.20;99.90
7155;DHT22;3619;53.784;10.440;2024-03-08T08:02:02;-0.30;99.90
7155;DHT22;3619;53.784;10.440;2024-03-08T08:04:29;-0.30;99.90
7155;DHT22;3619;53.784;10.440;2024-03-08T08:06:56;-0.30;99.90
7155;DHT22;3619;53.784;10.440;2024-03-08T08:09:23;-0.30;99.90
7155;DHT22;3619;53.784;10.440;2024-03-08T08:12:00;-0.30;99.90
7155;DHT22;3619;53.784;10.440;2024-03-08T08:14:27;-0.20;99.90
7155;DHT22;3619;53.784;10.440;2024-03-08T08:16:55;-0.20;99.90
7155;DHT22;3619;53.784;10.440;2024-03-08T08:19:31;-0.10;99.90
7155;DHT22;3619;53.784;10.440;2024-03-08T08:21:58;-0.10;99.90
7155;DHT22;3619;53.784;10.440;2024-03-08T08:24:26;-0.10;99.90
7155;DHT22;3619;53.784;10.440;2024-03-08T08:26:57;-0.10;99.90
7155;DHT22;3619;53.784;10.440;2024-03-08T08:29:25;0.00;99.90
7155;DHT22;3619;53.784;10.440;2024-03-08T08:31:51;-0.20;99.90
7155;DHT22;3619;53.784;10.440;2024-03-08T08:34:18;-0.20;99.90
7155;DHT22;3619;53.784;10.440;2024-03-08T08:36:52;-0.20;99.90
7155;DHT22;3619;53.784;10.440;2024-03-08T08:39:20;-0.20;99.90
7155;DHT22;3619;53.784;10.440;2024-03-08T08:41:48;0.00;99.90
7155;DHT22;3619;53.784;10.440;2024-03-08T08:44:15;0.10;99.90
7155;DHT22;3619;53.784;10.440;2024-03-08T08:46:42;0.10;99.90
7155;DHT22;3619;53.784;10.440;2024-03-08T08:49:09;0.20;99.90
7155;DHT22;3619;53.784;10.440;2024-03-08T08:51:41;0.30;99.90
7155;DHT22;3619;53.784;10.440;2024-03-08T08:54:10;0.70;99.90
7155;DHT22;3619;53.784;10.440;2024-03-08T08:56:37;0.70;99.90
7155;DHT22;3619;53.784;10.440;2024-03-08T08:59:04;0.90;99.90
7155;DHT22;3619;53.784;10.440;2024-03-08T09:01:32;0.80;99.90
7155;DHT22;3619;53.784;10.440;2024-03-08T09:03:59;0.80;99.90
7155;DHT22;3619;53.784;10.440;2024-03-08T09:06:27;0.90;99.90
7155;DHT22;3619;53.784;10.440;2024-03-08T09:08:55;0.90;99.90
7155;DHT22;3619;53.784;10.440;2024-03-08T09:11:24;1.00;99.90
7155;DHT22;3619;53.784;10.440;2024-03-08T09:13:51;1.00;99.90
7155;DHT22;3619;53.784;10.440;2024-03-08T09:16:18;1.00;99.90
7155;DHT22;3619;53.784;10.440;2024-03-08T09:18:45;1.20;99.90
7155;DHT22;3619;53.784;10.440;2024-03-08T09:21:14;1.20;99.90
7155;DHT22;3619;53.784;10.440;2024-03-08T09:23:41;1.30;99.90
7155;DHT22;3619;53.784;10.440;2024-03-08T09:26:10;1.50;99.90
7155;DHT22;3619;53.784;10.440;2024-03-08T09:28:39;1.40;99.90
7155;DHT22;3619;53.784;10.440;2024-03-08T09:31:06;1.50;99.90
7155;DHT22;3619;53.784;10.440;2024-03-08T09:33:33;1.60;99.90
7155;DHT22;3619;53.784;10.440;2024-03-08T09:36:00;1.80;99.90
7155;DHT22;3619;53.784;10.440;2024-03-08T09:38:29;2.00;99.90
7155;DHT22;3619;53.784;10.440;2024-03-08T09:40:56;2.30;99.90
7155;DHT22;3619;53.784;10.440;2024-03-08T09:43:24;2.40;99.90
7155;DHT22;3619;53.784;10.440;2024-03-08T09:45:53;2.50;99.90
7155;DHT22;3619;53.784;10.440;2024-03-08T09:48:22;2.60;99.90
7155;DHT22;3619;53.784;10.440;2024-03-08T09:50:49;2.60;99.90
7155;DHT22;3619;53.784;10.440;2024-03-08T09:53:16;2.80;99.90
7155;DHT22;3619;53.784;10.440;2024-03-08T09:55:43;2.90;99.90
7155;DHT22;3619;53.784;10.440;2024-03-08T09:58:12;2.80;99.90
7155;DHT22;3619;53.784;10.440;2024-03-08T10:01:03;2.80;99.90
7155;DHT22;3619;53.784;10.440;2024-03-08T10:03:32;3.00;99.90
7155;DHT22;3619;53.784;10.440;2024-03-08T10:05:59;3.20;99.90
7155;DHT22;3619;53.784;10.440;2024-03-08T10:08:27;3.30;99.90
7155;DHT22;3619;53.784;10.440;2024-03-08T10:10:55;3.30;99.90
7155;DHT22;3619;53.784;10.440;2024-03-08T10:13:25;3.40;99.90
7155;DHT22;3619;53.784;10.440;2024-03-08T10:15:53;3.40;99.90
7155;DHT22;3619;53.784;10.440;2024-03-08T10:18:22;3.50;99.90
7155;DHT22;3619;53.784;10.440;2024-03-08T10:21:03;3.60;99.90
7155;DHT22;3619;53.784;10.440;2024-03-08T10:23:31;3.80;99.90
7155;DHT22;3619;53.784;10.440;2024-03-08T10:26:10;3.90;99.90
7155;DHT22;3619;53.784;10.440;2024-03-08T10:28:40;4.20;99.90
7155;DHT22;3619;53.784;10.440;2024-03-08T10:31:11;4.40;99.90
7155;DHT22;3619;53.784;10.440;2024-03-08T10:33:43;4.50;99.90
7155;DHT22;3619;53.784;10.440;2024-03-08T10:36:14;4.70;99.90
7155;DHT22;3619;53.784;10.440;2024-03-08T10:38:43;4.80;99.90
7155;DHT22;3619;53.784;10.440;2024-03-08T10:41:12;4.80;99.90
7155;DHT22;3619;53.784;10.440;2024-03-08T10:44:01;4.80;99.90
7155;DHT22;3619;53.784;10.440;2024-03-08T10:46:43;4.90;99.90
7155;DHT22;3619;53.784;10.440;2024-03-08T10:49:23;5.10;99.90
7155;DHT22;3619;53.784;10.440;2024-03-08T10:51:53;5.10;99.90
7155;DHT22;3619;53.784;10.440;2024-03-08T10:54:23;5.20;99.90
7155;DHT22;3619;53.784;10.440;2024-03-08T10:56:52;5.20;99.90
7155;DHT22;3619;53.784;10.440;2024-03-08T10:59:21;5.50;99.90
7155;DHT22;3619;53.784;10.440;2024-03-08T11:01:49;5.70;99.90
7155;DHT22;3619;53.784;10.440;2024-03-08T11:04:18;5.80;99.90
7155;DHT22;3619;53.784;10.440;2024-03-08T11:06:50;5.90;99.90
7155;DHT22;3619;53.784;10.440;2024-03-08T11:09:30;5.80;99.90
7155;DHT22;3619;53.784;10.440;2024-03-08T11:12:22;5.80;99.90
7155;DHT22;3619;53.784;10.440;2024-03-08T11:14:59;6.00;99.90
7155;DHT22;3619;53.784;10.440;2024-03-08T11:17:45;5.80;99.90
7155;DHT22;3619;53.784;10.440;2024-03-08T11:20:16;6.00;99.90
7155;DHT22;3619;53.784;10.440;2024-03-08T11:22:49;6.20;99.90
7155;DHT22;3619;53.784;10.440;2024-03-08T11:25:35;6.20;99.90
7155;DHT22;3619;53.784;10.440;2024-03-08T11:28:11;6.40;99.90
7155;DHT22;3619;53.784;10.440;2024-03-08T11:30:46;6.50;99.90
7155;DHT22;3619;53.784;10.440;2024-03-08T11:33:15;6.70;99.90
7155;DHT22;3619;53.784;10.440;2024-03-08T11:35:44;6.80;99.90
7155;DHT22;3619;53.784;10.440;2024-03-08T11:38:12;6.70;99.90
7155;DHT22;3619;53.784;10.440;2024-03-08T11:40:40;6.70;99.90
7155;DHT22;3619;53.784;10.440;2024-03-08T11:43:08;6.70;99.90
7155;DHT22;3619;53.784;10.440;2024-03-08T11:45:35;6.80;99.90
7155;DHT22;3619;53.784;10.440;2024-03-08T11:48:04;7.00;99.90
7155;DHT22;3619;53.784;10.440;2024-03-08T11:50:32;7.00;99.90
7155;DHT22;3619;53.784;10.440;2024-03-08T11:53:04;7.00;99.90
7155;DHT22;3619;53.784;10.440;2024-03-08T11:55:31;7.10;99.90
7155;DHT22;3619;53.784;10.440;2024-03-08T11:58:04;7.10;99.90
7155;DHT22;3619;53.784;10.440;2024-03-08T12:00:33;7.00;99.90
7155;DHT22;3619;53.784;10.440;2024-03-08T12:03:06;7.00;99.90
7155;DHT22;3619;53.784;10.440;2024-03-08T12:05:35;7.00;99.90
7155;DHT22;3619;53.784;10.440;2024-03-08T12:08:05;7.20;99.90
7155;DHT22;3619;53.784;10.440;2024-03-08T12:10:35;7.40;99.90
7155;DHT22;3619;53.784;10.440;2024-03-08T12:13:07;7.40;99.90
7155;DHT22;3619;53.784;10.440;2024-03-08T12:15:40;7.40;99.90
7155;DHT22;3619;53.784;10.440;2024-03-08T12:18:09;7.50;99.90
7155;DHT22;3619;53.784;10.440;2024-03-08T12:20:38;7.40;99.90
7155;DHT22;3619;53.784;10.440;2024-03-08T12:23:15;7.40;99.90
7155;DHT22;3619;53.784;10.440;2024-03-08T12:25:44;7.50;99.90
7155;DHT22;3619;53.784;10.440;2024-03-08T12:28:12;7.40;99.90
7155;DHT22;3619;53.784;10.440;2024-03-08T12:30:46;7.40;99.90
7155;DHT22;3619;53.784;10.440;2024-03-08T12:33:16;7.40;99.90
7155;DHT22;3619;53.784;10.440;2024-03-08T12:35:50;7.50;99.90
7155;DHT22;3619;53.784;10.440;2024-03-08T12:38:24;7.70;99.90
7155;DHT22;3619;53.784;10.440;2024-03-08T12:40:55;7.60;99.90
7155;DHT22;3619;53.784;10.440;2024-03-08T12:43:23;7.70;99.90
7155;DHT22;3619;53.784;10.440;2024-03-08T12:45:53;7.60;99.90
7155;DHT22;3619;53.784;10.440;2024-03-08T12:48:26;7.40;99.90
7155;DHT22;3619;53.784;10.440;2024-03-08T12:50:54;7.50;99.90
7155;DHT22;3619;53.784;10.440;2024-03-08T12:53:23;7.60;99.90
7155;DHT22;3619;53.784;10.440;2024-03-08T12:55:52;7.50;99.90
7155;DHT22;3619;53.784;10.440;2024-03-08T12:58:22;7.60;99.90
7155;DHT22;3619;53.784;10.440;2024-03-08T13:00:49;7.60;99.90
7155;DHT22;3619;53.784;10.440;2024-03-08T13:03:16;7.60;99.90
7155;DHT22;3619;53.784;10.440;2024-03-08T13:05:43;7.60;99.90
7155;DHT22;3619;53.784;10.440;2024-03-08T13:08:11;7.70;99.90
7155;DHT22;3619;53.784;10.440;2024-03-08T13:10:40;7.90;99.90
7155;DHT22;3619;53.784;10.440;2024-03-08T13:13:09;7.80;99.90
7155;DHT22;3619;53.784;10.440;2024-03-08T13:15:37;7.90;99.90
7155;DHT22;3619;53.784;10.440;2024-03-08T13:18:09;8.00;99.90
7155;DHT22;3619;53.784;10.440;2024-03-08T13:20:36;8.00;99.90
7155;DHT22;3619;53.784;10.440;2024-03-08T13:23:04;7.90;99.90
7155;DHT22;3619;53.784;10.440;2024-03-08T13:25:31;7.90;99.90
7155;DHT22;3619;53.784;10.440;2024-03-08T13:27:59;8.00;99.90
7155;DHT22;3619;53.784;10.440;2024-03-08T13:30:26;8.00;99.90
7155;DHT22;3619;53.784;10.440;2024-03-08T13:32:53;7.90;99.90
7155;DHT22;3619;53.784;10.440;2024-03-08T13:35:26;7.90;99.90
7155;DHT22;3619;53.784;10.440;2024-03-08T13:37:55;8.00;99.90
7155;DHT22;3619;53.784;10.440;2024-03-08T13:40:22;8.10;99.90
7155;DHT22;3619;53.784;10.440;2024-03-08T13:42:50;8.10;99.90
7155;DHT22;3619;53.784;10.440;2024-03-08T13:45:18;8.20;99.90
7155;DHT22;3619;53.784;10.440;2024-03-08T13:47:50;8.10;99.90
7155;DHT22;3619;53.784;10.440;2024-03-08T13:50:18;8.10;99.90
7155;DHT22;3619;53.784;10.440;2024-03-08T13:52:47;8.20;99.90
7155;DHT22;3619;53.784;10.440;2024-03-08T13:55:17;8.20;99.90
7155;DHT22;3619;53.784;10.440;2024-03-08T13:57:44;8.10;99.90
7155;DHT22;3619;53.784;10.440;2024-03-08T14:00:13;8.00;99.90
7155;DHT22;3619;53.784;10.440;2024-03-08T14:02:42;8.00;99.90
7155;DHT22;3619;53.784;10.440;2024-03-08T14:05:12;8.00;99.90
7155;DHT22;3619;53.784;10.440;2024-03-08T14:07:40;7.90;99.90
7155;DHT22;3619;53.784;10.440;2024-03-08T14:10:08;8.00;99.90
7155;DHT22;3619;53.784;10.440;2024-03-08T14:12:42;8.10;99.90
7155;DHT22;3619;53.784;10.440;2024-03-08T14:15:10;8.20;99.90
7155;DHT22;3619;53.784;10.440;2024-03-08T14:17:38;8.30;99.90
7155;DHT22;3619;53.784;10.440;2024-03-08T14:20:07;8.40;99.90
7155;DHT22;3619;53.784;10.440;2024-03-08T14:22:35;8.40;99.90
7155;DHT22;3619;53.784;10.440;2024-03-08T14:25:02;8.50;99.90
7155;DHT22;3619;53.784;10.440;2024-03-08T14:27:31;8.40;99.90
7155;DHT22;3619;53.784;10.440;2024-03-08T14:30:00;8.40;99.90
7155;DHT22;3619;53.784;10.440;2024-03-08T14:32:29;8.40;99.90
7155;DHT22;3619;53.784;10.440;2024-03-08T14:34:58;8.50;99.90
7155;DHT22;3619;53.784;10.440;2024-03-08T14:37:27;8.40;99.90
7155;DHT22;3619;53.784;10.440;2024-03-08T14:39:56;8.30;99.90
7155;DHT22;3619;53.784;10.440;2024-03-08T14:42:25;8.20;99.90
7155;DHT22;3619;53.784;10.440;2024-03-08T14:44:52;8.20;99.90
7155;DHT22;3619;53.784;10.440;2024-03-08T14:47:21;8.20;99.90
7155;DHT22;3619;53.784;10.440;2024-03-08T14:49:51;8.30;99.90
7155;DHT22;3619;53.784;10.440;2024-03-08T14:52:18;8.40;99.90
7155;DHT22;3619;53.784;10.440;2024-03-08T14:57:40;8.30;99.90
7155;DHT22;3619;53.784;10.440;2024-03-08T15:00:08;8.20;99.90
7155;DHT22;3619;53.784;10.440;2024-03-08T15:02:42;8.30;99.90
7155;DHT22;3619;53.784;10.440;2024-03-08T15:05:10;8.20;99.90
7155;DHT22;3619;53.784;10.440;2024-03-08T15:10:20;8.20;99.90
7155;DHT22;3619;53.784;10.440;2024-03-08T15:12:58;8.30;99.90
7155;DHT22;3619;53.784;10.440;2024-03-08T15:15:25;8.30;99.90
7155;DHT22;3619;53.784;10.440;2024-03-08T15:36:18;8.00;99.90
7155;DHT22;3619;53.784;10.440;2024-03-08T15:41:22;8.00;99.90
7155;DHT22;3619;53.784;10.440;2024-03-08T15:43:49;7.90;99.90
7155;DHT22;3619;53.784;10.440;2024-03-08T15:46:16;7.70;99.90
7155;DHT22;3619;53.784;10.440;2024-03-08T15:48:50;7.60;99.90
7155;DHT22;3619;53.784;10.440;2024-03-08T15:51:18;7.50;99.90
7155;DHT22;3619;53.784;10.440;2024-03-08T15:53:46;7.30;99.90
7155;DHT22;3619;53.784;10.440;2024-03-08T15:56:19;7.10;99.90
7155;DHT22;3619;53.784;10.440;2024-03-08T15:58:48;7.00;99.90
7155;DHT22;3619;53.784;10.440;2024-03-08T16:01:16;6.80;99.90
7155;DHT22;3619;53.784;10.440;2024-03-08T16:03:43;6.70;99.90
7155;DHT22;3619;53.784;10.440;2024-03-08T16:06:21;6.60;99.90
7155;DHT22;3619;53.784;10.440;2024-03-08T16:08:50;6.50;99.90
7155;DHT22;3619;53.784;10.440;2024-03-08T16:11:19;6.40;99.90
7155;DHT22;3619;53.784;10.440;2024-03-08T16:13:47;6.30;99.90
7155;DHT22;3619;53.784;10.440;2024-03-08T16:16:15;6.20;99.90
7155;DHT22;3619;53.784;10.440;2024-03-08T16:18:42;6.20;99.90
7155;DHT22;3619;53.784;10.440;2024-03-08T16:21:09;6.10;99.90
7155;DHT22;3619;53.784;10.440;2024-03-08T16:23:39;6.00;99.90
7155;DHT22;3619;53.784;10.440;2024-03-08T16:26:07;5.80;99.90
7155;DHT22;3619;53.784;10.440;2024-03-08T16:28:37;5.80;99.90
7155;DHT22;3619;53.784;10.440;2024-03-08T16:31:09;5.70;99.90